Terminal Aerodrome Forecast
Issued by NWS

Home | Current Version | Previous Version | Text Only | Print | Product List | Glossary On
Versions: 1 2 3 4 5 6 7 8 9 10 11 12 13 14 15 16 17 18 19
000
FTUS44 KBMX 260500
TAFANB
TAF
KANB 260520Z 2606/2706 32005KT P6SM VCSH BKN050 OVC100
     FM261600 21007KT P6SM SCT150
     FM270300 27007KT P6SM SKC=

USA.gov is the U.S. government's official web portal to all federal, state and local government web resources and services.